Time;durP1;ratioP1;P1;durP2;ratioP2;P2;SDS_P1;SDS_P2;PMS_P1;PMS_P2;Temp;Humidity;BMP_temperature;BMP_pressure;BME280_temperature;BME280_humidity;BME280_pressure;Samples;Min_cycle;Max_cycle;Signal;HPM_P1;HPM_P2
2023/05/12 00:02:00;;;;;;;49.40;38.50;;;;;;;;;;5042910;28;20490;-85
2023/05/12 00:04:27;;;;;;;43.60;35.73;;;;;;;;;;5042047;28;20482;-85
2023/05/12 00:06:55;;;;;;;44.27;35.27;;;;;;;;;;5040947;28;20439;-83
2023/05/12 00:09:22;;;;;;;42.83;37.50;;;;;;;;;;5041352;28;20500;-85
2023/05/12 00:11:51;;;;;;;40.57;35.90;;;;;;;;;;5042584;28;20437;-85
2023/05/12 00:14:18;;;;;;;40.57;34.50;;;;;;;;;;5042148;28;20479;-84
2023/05/12 00:16:50;;;;;;;39.23;34.63;;;;;;;;;;5040957;28;20491;-85
2023/05/12 00:19:17;;;;;;;40.33;36.13;;;;;;;;;;5041817;28;20483;-85
2023/05/12 00:21:44;;;;;;;42.33;35.00;;;;;;;;;;5041833;28;20460;-83
2023/05/12 00:24:11;;;;;;;37.10;33.30;;;;;;;;;;5041772;28;20788;-85
2023/05/12 00:26:38;;;;;;;38.83;34.93;;;;;;;;;;5041115;28;20447;-84
2023/05/12 00:29:06;;;;;;;37.97;34.60;;;;;;;;;;5041089;28;20479;-85
2023/05/12 00:31:33;;;;;;;39.10;35.10;;;;;;;;;;5041723;28;20448;-85
2023/05/12 00:34:00;;;;;;;36.90;33.30;;;;;;;;;;5041347;28;20419;-85
2023/05/12 00:36:28;;;;;;;35.90;32.10;;;;;;;;;;5040171;28;20483;-85
2023/05/12 00:38:55;;;;;;;37.50;34.07;;;;;;;;;;5041339;28;20708;-86
2023/05/12 00:41:23;;;;;;;33.07;30.03;;;;;;;;;;5040152;28;20790;-85
2023/05/12 00:43:51;;;;;;;30.90;28.27;;;;;;;;;;5040787;28;20460;-86
2023/05/12 00:46:19;;;;;;;31.27;28.53;;;;;;;;;;5039573;28;20459;-85
2023/05/12 00:48:46;;;;;;;28.80;26.40;;;;;;;;;;5039585;28;20474;-86
2023/05/12 00:51:14;;;;;;;29.90;27.27;;;;;;;;;;5039976;28;20463;-86
2023/05/12 00:53:42;;;;;;;30.13;27.63;;;;;;;;;;5039812;28;20497;-86
2023/05/12 00:56:09;;;;;;;28.93;26.63;;;;;;;;;;5039515;28;20490;-85
2023/05/12 00:58:36;;;;;;;28.13;26.03;;;;;;;;;;5039701;28;20469;-86
2023/05/12 01:01:03;;;;;;;28.27;26.20;;;;;;;;;;5039824;28;20507;-85
2023/05/12 01:03:32;;;;;;;28.07;26.07;;;;;;;;;;5040082;28;20456;-86
2023/05/12 01:06:01;;;;;;;27.17;25.07;;;;;;;;;;5039617;28;20418;-86
2023/05/12 01:08:29;;;;;;;29.20;26.70;;;;;;;;;;5039534;28;20527;-86
2023/05/12 01:10:56;;;;;;;28.20;26.00;;;;;;;;;;5039479;28;20483;-86
2023/05/12 01:13:23;;;;;;;26.53;24.50;;;;;;;;;;5039987;28;20940;-85
2023/05/12 01:15:50;;;;;;;26.90;24.90;;;;;;;;;;5039135;28;20476;-85
2023/05/12 01:18:20;;;;;;;26.10;24.17;;;;;;;;;;5039125;28;20864;-85
2023/05/12 01:20:48;;;;;;;28.07;25.70;;;;;;;;;;5035476;28;20486;-86
2023/05/12 01:23:18;;;;;;;26.97;24.97;;;;;;;;;;5036223;28;20462;-85
2023/05/12 01:25:47;;;;;;;26.07;24.07;;;;;;;;;;5036475;28;20457;-86
2023/05/12 01:28:15;;;;;;;27.17;25.17;;;;;;;;;;5037719;28;20430;-86
2023/05/12 01:30:43;;;;;;;27.43;25.53;;;;;;;;;;5037246;28;20502;-86
2023/05/12 01:33:10;;;;;;;26.57;24.73;;;;;;;;;;5038192;28;20436;-86
2023/05/12 01:35:38;;;;;;;28.20;25.60;;;;;;;;;;5038039;28;20447;-85
2023/05/12 01:38:05;;;;;;;27.13;25.33;;;;;;;;;;5037812;28;20430;-87
2023/05/12 01:40:32;;;;;;;26.13;24.30;;;;;;;;;;5038655;28;20467;-86
2023/05/12 01:42:59;;;;;;;27.37;25.50;;;;;;;;;;5036973;28;20445;-86
2023/05/12 01:45:30;;;;;;;26.23;24.50;;;;;;;;;;5037351;28;20844;-86
2023/05/12 01:47:57;;;;;;;27.27;25.17;;;;;;;;;;5038595;28;20900;-86
2023/05/12 01:50:24;;;;;;;27.67;25.67;;;;;;;;;;5038795;28;20528;-86
2023/05/12 01:52:51;;;;;;;26.87;24.87;;;;;;;;;;5038429;28;20490;-86
2023/05/12 01:55:18;;;;;;;25.50;23.57;;;;;;;;;;5039179;28;21077;-86
2023/05/12 01:57:45;;;;;;;26.20;24.27;;;;;;;;;;5038020;28;20549;-86
2023/05/12 02:00:15;;;;;;;25.73;23.93;;;;;;;;;;5038799;28;20526;-86
2023/05/12 02:02:43;;;;;;;25.90;24.13;;;;;;;;;;5038815;28;20464;-86
2023/05/12 02:05:10;;;;;;;26.07;24.00;;;;;;;;;;5038466;28;20910;-86
2023/05/12 02:07:38;;;;;;;25.93;24.13;;;;;;;;;;5038167;28;20856;-86
2023/05/12 02:10:06;;;;;;;25.83;24.03;;;;;;;;;;5038833;28;20450;-86
2023/05/12 02:12:33;;;;;;;26.73;24.83;;;;;;;;;;5038217;28;20521;-86
2023/05/12 02:15:00;;;;;;;24.60;23.00;;;;;;;;;;5038475;28;20434;-86
2023/05/12 02:17:28;;;;;;;24.80;23.30;;;;;;;;;;5038459;28;20541;-86
2023/05/12 02:19:56;;;;;;;26.50;24.70;;;;;;;;;;5038232;28;20529;-86
2023/05/12 02:22:23;;;;;;;24.97;23.37;;;;;;;;;;5038016;28;20434;-86
2023/05/12 02:24:50;;;;;;;25.23;23.53;;;;;;;;;;5038084;28;20410;-86
2023/05/12 02:27:17;;;;;;;26.80;25.10;;;;;;;;;;5037775;28;20473;-86
2023/05/12 02:29:44;;;;;;;27.83;26.10;;;;;;;;;;5037998;28;20532;-86
2023/05/12 02:32:11;;;;;;;27.87;26.07;;;;;;;;;;5037800;28;20420;-85
2023/05/12 02:34:38;;;;;;;25.20;23.40;;;;;;;;;;5039731;28;20453;-86
2023/05/12 02:37:06;;;;;;;25.67;24.07;;;;;;;;;;5042350;28;20510;-86
2023/05/12 02:39:33;;;;;;;26.27;24.40;;;;;;;;;;5042428;28;20472;-86
2023/05/12 02:42:00;;;;;;;26.77;25.07;;;;;;;;;;5042059;28;20819;-86
2023/05/12 02:44:27;;;;;;;26.00;24.40;;;;;;;;;;5042041;28;20442;-86
2023/05/12 02:46:56;;;;;;;27.03;25.23;;;;;;;;;;5041643;28;20426;-86
2023/05/12 02:49:23;;;;;;;28.60;26.47;;;;;;;;;;5041898;28;20479;-86
2023/05/12 02:51:50;;;;;;;25.87;23.97;;;;;;;;;;5041790;28;20448;-86
2023/05/12 02:54:19;;;;;;;27.70;25.53;;;;;;;;;;5043814;28;20550;-86
2023/05/12 02:56:46;;;;;;;26.10;24.20;;;;;;;;;;5044567;28;20479;-86
2023/05/12 02:59:13;;;;;;;24.50;23.00;;;;;;;;;;5044690;28;20469;-86
2023/05/12 03:01:40;;;;;;;26.23;24.53;;;;;;;;;;5045288;28;20483;-86
2023/05/12 03:04:07;;;;;;;24.93;23.33;;;;;;;;;;5043453;28;20450;-86
2023/05/12 03:06:34;;;;;;;25.53;23.93;;;;;;;;;;5043381;28;20505;-86
2023/05/12 03:09:02;;;;;;;26.17;24.30;;;;;;;;;;5043569;28;20486;-86
2023/05/12 03:11:30;;;;;;;26.73;24.93;;;;;;;;;;5043059;28;20507;-86
2023/05/12 03:13:57;;;;;;;26.37;24.57;;;;;;;;;;5042600;28;20455;-86
2023/05/12 03:16:25;;;;;;;26.53;24.80;;;;;;;;;;5043011;28;20467;-87
2023/05/12 03:18:52;;;;;;;25.43;23.83;;;;;;;;;;5042723;28;21024;-86
2023/05/12 03:21:19;;;;;;;25.80;24.10;;;;;;;;;;5043248;28;20436;-87
2023/05/12 03:23:46;;;;;;;24.87;23.37;;;;;;;;;;5042924;28;20501;-86
2023/05/12 03:26:13;;;;;;;26.00;24.30;;;;;;;;;;5041190;28;20442;-86
2023/05/12 03:28:41;;;;;;;27.03;25.33;;;;;;;;;;5041691;28;20486;-86
2023/05/12 03:31:09;;;;;;;24.87;23.33;;;;;;;;;;5041712;28;20430;-86
2023/05/12 03:33:36;;;;;;;26.83;24.93;;;;;;;;;;5042743;28;20429;-87
2023/05/12 03:36:03;;;;;;;26.77;25.07;;;;;;;;;;5041001;28;20518;-86
2023/05/12 03:38:30;;;;;;;26.20;24.60;;;;;;;;;;5041860;28;20890;-87
2023/05/12 03:41:03;;;;;;;27.27;25.60;;;;;;;;;;5041708;28;20450;-86
2023/05/12 03:43:30;;;;;;;27.97;26.10;;;;;;;;;;5041682;28;20961;-86
2023/05/12 03:45:59;;;;;;;28.30;26.50;;;;;;;;;;5039983;28;20471;-84
2023/05/12 03:48:26;;;;;;;28.80;26.87;;;;;;;;;;5041390;28;20444;-84
2023/05/12 03:50:53;;;;;;;28.37;26.37;;;;;;;;;;5041650;28;20537;-84
2023/05/12 03:53:20;;;;;;;30.67;28.67;;;;;;;;;;5041531;28;20414;-84
2023/05/12 03:55:47;;;;;;;27.40;25.80;;;;;;;;;;5044244;28;20438;-84
2023/05/12 03:58:15;;;;;;;26.93;25.23;;;;;;;;;;5047255;28;20491;-84
2023/05/12 04:00:41;;;;;;;28.40;26.53;;;;;;;;;;5050056;28;20480;-84
2023/05/12 04:03:10;;;;;;;28.93;27.10;;;;;;;;;;5035044;28;20505;-84
2023/05/12 04:05:38;;;;;;;31.37;29.43;;;;;;;;;;5036446;28;20457;-84
2023/05/12 04:08:05;;;;;;;29.00;27.20;;;;;;;;;;5043741;28;20486;-84
2023/05/12 04:10:32;;;;;;;27.70;26.00;;;;;;;;;;5043549;28;20448;-84
2023/05/12 04:12:59;;;;;;;28.70;26.80;;;;;;;;;;5043745;28;20497;-84
2023/05/12 04:15:26;;;;;;;28.13;26.43;;;;;;;;;;5043574;28;20476;-84
2023/05/12 04:17:53;;;;;;;27.77;26.17;;;;;;;;;;5042173;28;20465;-84
2023/05/12 04:20:22;;;;;;;27.37;25.77;;;;;;;;;;5042179;28;21017;-84
2023/05/12 04:22:50;;;;;;;26.83;25.13;;;;;;;;;;5042321;28;20496;-84
2023/05/12 04:25:17;;;;;;;26.93;25.10;;;;;;;;;;5042294;28;20422;-84
2023/05/12 04:27:44;;;;;;;27.00;25.10;;;;;;;;;;5041179;28;20446;-84
2023/05/12 04:30:11;;;;;;;26.50;24.87;;;;;;;;;;5041544;28;20533;-84
2023/05/12 04:32:38;;;;;;;24.87;23.47;;;;;;;;;;5041771;28;20512;-84
2023/05/12 04:35:06;;;;;;;23.93;22.63;;;;;;;;;;5041459;28;20484;-84
2023/05/12 04:37:34;;;;;;;23.40;22.00;;;;;;;;;;5040759;28;20549;-84
2023/05/12 04:40:01;;;;;;;25.67;24.27;;;;;;;;;;5040872;28;21057;-84
2023/05/12 04:42:28;;;;;;;26.53;24.60;;;;;;;;;;5041216;28;20483;-84
2023/05/12 04:44:55;;;;;;;25.67;24.17;;;;;;;;;;5040736;28;20452;-84
2023/05/12 04:47:22;;;;;;;24.40;22.80;;;;;;;;;;5039486;28;20430;-84
2023/05/12 04:49:50;;;;;;;25.40;24.00;;;;;;;;;;5040272;28;20522;-84
2023/05/12 04:52:17;;;;;;;24.20;22.90;;;;;;;;;;5043560;28;20944;-84
2023/05/12 04:54:45;;;;;;;23.67;22.17;;;;;;;;;;5042234;28;20446;-82
2023/05/12 04:57:12;;;;;;;22.57;21.27;;;;;;;;;;5039135;28;20916;-84
2023/05/12 04:59:39;;;;;;;22.90;21.50;;;;;;;;;;5041123;28;20534;-84
2023/05/12 05:02:06;;;;;;;22.30;21.20;;;;;;;;;;5041140;28;20506;-84
2023/05/12 05:04:33;;;;;;;23.47;22.10;;;;;;;;;;5040424;28;20426;-84
2023/05/12 05:07:00;;;;;;;23.83;22.53;;;;;;;;;;5040234;28;20484;-84
2023/05/12 05:09:27;;;;;;;23.03;21.83;;;;;;;;;;5038766;28;20491;-85
2023/05/12 05:11:55;;;;;;;24.03;22.30;;;;;;;;;;5040155;28;20457;-84
2023/05/12 05:14:22;;;;;;;21.70;20.50;;;;;;;;;;5039731;28;20465;-84
2023/05/12 05:16:49;;;;;;;23.30;22.00;;;;;;;;;;5039153;28;20692;-84
2023/05/12 05:19:16;;;;;;;23.93;22.50;;;;;;;;;;5039245;28;20477;-84
2023/05/12 05:21:43;;;;;;;24.40;22.97;;;;;;;;;;5040018;28;20455;-84
2023/05/12 05:24:11;;;;;;;23.20;22.00;;;;;;;;;;5039476;28;20953;-84
2023/05/12 05:26:38;;;;;;;24.07;22.60;;;;;;;;;;5039275;28;20482;-84
2023/05/12 05:29:07;;;;;;;22.43;21.27;;;;;;;;;;5038470;28;20800;-84
2023/05/12 05:31:34;;;;;;;22.63;20.90;;;;;;;;;;5039429;28;20489;-84
2023/05/12 05:34:01;;;;;;;22.50;21.37;;;;;;;;;;5043320;28;20518;-84
2023/05/12 05:36:28;;;;;;;22.67;21.37;;;;;;;;;;5041923;28;20427;-85
2023/05/12 05:38:55;;;;;;;21.83;20.50;;;;;;;;;;5042342;28;20503;-84
2023/05/12 05:41:22;;;;;;;21.17;20.07;;;;;;;;;;5042742;28;20501;-85
2023/05/12 05:43:49;;;;;;;21.90;20.70;;;;;;;;;;5041723;28;20460;-84
2023/05/12 05:46:18;;;;;;;21.60;20.40;;;;;;;;;;5041409;28;20444;-84
2023/05/12 05:48:45;;;;;;;19.27;18.33;;;;;;;;;;5040957;28;20413;-83
2023/05/12 05:51:12;;;;;;;20.53;19.43;;;;;;;;;;5040747;28;20461;-84
2023/05/12 05:53:39;;;;;;;20.20;19.20;;;;;;;;;;5040811;28;20422;-84
2023/05/12 05:56:07;;;;;;;20.30;19.20;;;;;;;;;;5040664;28;20456;-84
2023/05/12 05:58:34;;;;;;;19.00;18.10;;;;;;;;;;5041200;28;20491;-84
2023/05/12 06:01:01;;;;;;;18.67;17.77;;;;;;;;;;5039265;28;20475;-84
2023/05/12 06:03:30;;;;;;;19.00;18.10;;;;;;;;;;5039441;28;20506;-84
2023/05/12 06:05:57;;;;;;;19.73;18.73;;;;;;;;;;5038681;28;20444;-84
2023/05/12 06:08:25;;;;;;;18.70;17.70;;;;;;;;;;5038659;28;20858;-84
2023/05/12 06:10:52;;;;;;;19.40;18.40;;;;;;;;;;5038662;28;20584;-86
2023/05/12 06:13:19;;;;;;;18.20;17.30;;;;;;;;;;5038837;28;20456;-84
2023/05/12 06:15:46;;;;;;;18.63;17.73;;;;;;;;;;5039070;28;20455;-84
2023/05/12 06:18:13;;;;;;;19.10;18.20;;;;;;;;;;5039085;28;20480;-85
2023/05/12 06:20:42;;;;;;;18.23;17.30;;;;;;;;;;5039060;28;20848;-85
2023/05/12 06:23:09;;;;;;;17.97;17.17;;;;;;;;;;5038791;28;20399;-84
2023/05/12 06:25:36;;;;;;;17.43;16.63;;;;;;;;;;5037857;28;20436;-85
2023/05/12 06:28:03;;;;;;;19.07;17.90;;;;;;;;;;5038653;28;20506;-85
2023/05/12 06:30:30;;;;;;;18.20;17.30;;;;;;;;;;5037555;28;20450;-87
2023/05/12 06:32:58;;;;;;;19.50;18.50;;;;;;;;;;5040305;28;20812;-85
2023/05/12 06:35:25;;;;;;;18.80;17.80;;;;;;;;;;5040682;28;20430;-86
2023/05/12 06:37:53;;;;;;;19.47;18.40;;;;;;;;;;5040079;28;20483;-86
2023/05/12 06:40:21;;;;;;;18.87;17.70;;;;;;;;;;5040337;28;20426;-85
2023/05/12 06:42:48;;;;;;;17.80;16.90;;;;;;;;;;5040681;28;20853;-86
2023/05/12 06:45:15;;;;;;;19.27;18.33;;;;;;;;;;5040796;28;20448;-86
2023/05/12 06:47:42;;;;;;;18.17;17.27;;;;;;;;;;5039065;28;20459;-86
2023/05/12 06:50:09;;;;;;;18.53;17.63;;;;;;;;;;5039585;28;20476;-87
2023/05/12 06:52:36;;;;;;;19.57;18.67;;;;;;;;;;5038051;28;20439;-82
2023/05/12 06:55:05;;;;;;;20.47;19.47;;;;;;;;;;5039994;28;20443;-82
2023/05/12 06:57:33;;;;;;;21.30;20.20;;;;;;;;;;5038964;28;20562;-81
2023/05/12 07:00:01;;;;;;;20.37;19.40;;;;;;;;;;5039138;28;20475;-82
2023/05/12 07:02:29;;;;;;;20.63;19.53;;;;;;;;;;5039388;28;20442;-82
2023/05/12 07:04:56;;;;;;;22.37;21.17;;;;;;;;;;5039473;28;20462;-82
2023/05/12 07:07:23;;;;;;;20.80;19.87;;;;;;;;;;5038700;28;20506;-82
2023/05/12 07:09:50;;;;;;;20.20;19.20;;;;;;;;;;5038544;28;20508;-82
2023/05/12 07:12:18;;;;;;;20.67;19.67;;;;;;;;;;5038844;28;20448;-82
2023/05/12 07:14:45;;;;;;;20.43;19.40;;;;;;;;;;5038884;28;20451;-86
2023/05/12 07:17:12;;;;;;;20.57;19.47;;;;;;;;;;5039244;28;20454;-82
2023/05/12 07:19:39;;;;;;;20.90;19.80;;;;;;;;;;5042567;28;20556;-82
2023/05/12 07:22:06;;;;;;;20.63;19.53;;;;;;;;;;5046695;28;20956;-82
2023/05/12 07:24:33;;;;;;;20.90;19.83;;;;;;;;;;5045502;28;20844;-82
2023/05/12 07:27:01;;;;;;;21.60;20.33;;;;;;;;;;5045803;28;20430;-82
2023/05/12 07:29:29;;;;;;;21.07;19.80;;;;;;;;;;5041843;28;20451;-83
2023/05/12 07:31:57;;;;;;;22.93;21.73;;;;;;;;;;5040342;28;20554;-82
2023/05/12 07:34:24;;;;;;;23.00;21.30;;;;;;;;;;5038230;28;20456;-82
2023/05/12 07:36:51;;;;;;;21.07;19.87;;;;;;;;;;5031602;28;20527;-82
2023/05/12 07:39:22;;;;;;;22.20;20.90;;;;;;;;;;5033976;28;20483;-82
2023/05/12 07:41:49;;;;;;;23.43;21.90;;;;;;;;;;5044326;28;20459;-82
2023/05/12 07:44:16;;;;;;;21.87;20.67;;;;;;;;;;5044638;28;20451;-82
2023/05/12 07:46:44;;;;;;;21.63;20.53;;;;;;;;;;5043318;28;20447;-82
2023/05/12 07:49:11;;;;;;;22.20;21.00;;;;;;;;;;5042408;28;20521;-82
2023/05/12 07:51:39;;;;;;;24.50;23.20;;;;;;;;;;5043212;28;20444;-82
2023/05/12 07:54:06;;;;;;;25.40;23.87;;;;;;;;;;5042600;28;20494;-82
2023/05/12 07:56:33;;;;;;;23.97;22.67;;;;;;;;;;5041010;28;20469;-83
2023/05/12 07:59:00;;;;;;;23.60;22.30;;;;;;;;;;5042565;28;20491;-82
2023/05/12 08:01:27;;;;;;;24.60;23.20;;;;;;;;;;5041195;28;20517;-84
2023/05/12 08:03:56;;;;;;;26.97;24.90;;;;;;;;;;5042107;28;20422;-82
2023/05/12 08:06:23;;;;;;;25.60;24.30;;;;;;;;;;5042509;28;20440;-82
2023/05/12 08:08:50;;;;;;;26.07;24.47;;;;;;;;;;5041756;28;20448;-79
2023/05/12 08:11:17;;;;;;;26.97;25.57;;;;;;;;;;5041761;28;20421;-82
2023/05/12 08:13:44;;;;;;;27.47;26.03;;;;;;;;;;5042871;28;20428;-82
2023/05/12 08:16:11;;;;;;;25.87;24.53;;;;;;;;;;5042281;28;20443;-82
2023/05/12 08:18:38;;;;;;;25.53;24.13;;;;;;;;;;5043202;28;20446;-82
2023/05/12 08:21:07;;;;;;;23.83;22.63;;;;;;;;;;5044107;28;20415;-81
2023/05/12 08:23:36;;;;;;;24.67;23.30;;;;;;;;;;5043403;28;20498;-81
2023/05/12 08:26:03;;;;;;;27.83;26.37;;;;;;;;;;5043285;28;20451;-82
2023/05/12 08:28:30;;;;;;;26.80;25.50;;;;;;;;;;5056465;28;20418;-81
2023/05/12 08:30:57;;;;;;;29.10;27.60;;;;;;;;;;5056563;28;20459;-81
2023/05/12 08:33:24;;;;;;;28.33;26.90;;;;;;;;;;5051646;28;20463;-81
2023/05/12 08:35:51;;;;;;;28.30;26.80;;;;;;;;;;5045399;28;20478;-81
2023/05/12 08:38:20;;;;;;;27.77;26.37;;;;;;;;;;5045933;28;20835;-82
2023/05/12 08:40:50;;;;;;;27.20;25.90;;;;;;;;;;5044821;28;20961;-81
2023/05/12 08:43:24;;;;;;;27.20;25.50;;;;;;;;;;5044892;28;20445;-82
2023/05/12 08:45:56;;;;;;;28.10;26.20;;;;;;;;;;5045331;28;20692;-82
2023/05/12 08:48:23;;;;;;;28.80;27.20;;;;;;;;;;5044756;28;20936;-82
2023/05/12 08:50:50;;;;;;;28.10;26.60;;;;;;;;;;5044359;28;20462;-81
2023/05/12 08:53:19;;;;;;;27.00;25.70;;;;;;;;;;5044514;28;20494;-82
2023/05/12 08:55:48;;;;;;;26.63;25.10;;;;;;;;;;5043694;28;20430;-81
2023/05/12 08:58:15;;;;;;;27.90;26.30;;;;;;;;;;5024884;28;20853;-81
2023/05/12 09:00:42;;;;;;;28.17;26.57;;;;;;;;;;5021879;28;20831;-81
2023/05/12 09:03:09;;;;;;;27.70;26.30;;;;;;;;;;5023815;28;20518;-82
2023/05/12 09:05:37;;;;;;;25.93;24.53;;;;;;;;;;5022906;28;20471;-81
2023/05/12 09:08:05;;;;;;;25.20;23.90;;;;;;;;;;5023297;28;20420;-82
2023/05/12 09:10:32;;;;;;;26.60;25.27;;;;;;;;;;5019986;28;20485;-82
2023/05/12 09:13:03;;;;;;;26.43;25.13;;;;;;;;;;5018971;28;20469;-82
2023/05/12 09:15:34;;;;;;;25.50;24.00;;;;;;;;;;5018313;28;20441;-82
2023/05/12 09:18:01;;;;;;;26.23;24.50;;;;;;;;;;5017508;28;20426;-82
2023/05/12 09:20:28;;;;;;;25.20;23.90;;;;;;;;;;5017232;28;20977;-83
2023/05/12 09:22:57;;;;;;;24.70;23.60;;;;;;;;;;5018175;28;20473;-83
2023/05/12 09:25:24;;;;;;;25.23;23.83;;;;;;;;;;5018894;28;20467;-83
2023/05/12 09:27:56;;;;;;;23.40;22.20;;;;;;;;;;5017353;28;20499;-82
2023/05/12 09:30:34;;;;;;;25.63;24.30;;;;;;;;;;5018378;28;20508;-81
2023/05/12 09:33:07;;;;;;;26.03;24.70;;;;;;;;;;5017437;28;20441;-82
2023/05/12 09:35:38;;;;;;;24.57;23.37;;;;;;;;;;5017796;28;20531;-82
2023/05/12 09:38:06;;;;;;;23.57;22.37;;;;;;;;;;5018784;28;20502;-82
2023/05/12 09:40:33;;;;;;;23.70;22.60;;;;;;;;;;5017851;28;20484;-82
2023/05/12 09:43:00;;;;;;;24.70;23.50;;;;;;;;;;5016227;28;20427;-82
2023/05/12 09:45:27;;;;;;;23.13;21.60;;;;;;;;;;5014171;28;20454;-82
2023/05/12 09:47:56;;;;;;;23.80;22.60;;;;;;;;;;5015634;28;20449;-83
2023/05/12 09:50:23;;;;;;;23.43;22.23;;;;;;;;;;5015981;28;20881;-81
2023/05/12 09:52:51;;;;;;;23.17;21.97;;;;;;;;;;5016741;28;20427;-82
2023/05/12 09:55:18;;;;;;;21.97;20.87;;;;;;;;;;5017114;28;20449;-83
2023/05/12 09:57:45;;;;;;;23.33;21.87;;;;;;;;;;5017806;28;20502;-82
2023/05/12 10:00:16;;;;;;;24.13;22.17;;;;;;;;;;5018375;28;20883;-83
2023/05/12 10:02:43;;;;;;;22.90;21.70;;;;;;;;;;5019245;28;20431;-82
2023/05/12 10:05:15;;;;;;;23.33;22.10;;;;;;;;;;5018609;28;20502;-82
2023/05/12 10:07:42;;;;;;;24.47;22.97;;;;;;;;;;5018281;28;20421;-82
2023/05/12 10:10:11;;;;;;;22.90;21.60;;;;;;;;;;5018734;28;20439;-83
2023/05/12 10:12:39;;;;;;;23.30;22.00;;;;;;;;;;5018900;28;20428;-83
2023/05/12 10:15:08;;;;;;;22.60;21.30;;;;;;;;;;5018006;28;20439;-82
2023/05/12 10:17:35;;;;;;;22.80;21.50;;;;;;;;;;5018095;28;20434;-82
2023/05/12 10:20:05;;;;;;;23.23;21.97;;;;;;;;;;5018459;28;20500;-83
2023/05/12 10:22:34;;;;;;;22.57;21.13;;;;;;;;;;5017344;28;20453;-84
2023/05/12 10:25:02;;;;;;;21.23;20.03;;;;;;;;;;5017054;28;20433;-84
2023/05/12 10:27:29;;;;;;;23.03;21.63;;;;;;;;;;5016272;28;20499;-83
2023/05/12 10:29:57;;;;;;;23.40;22.00;;;;;;;;;;5016537;28;20462;-83
2023/05/12 10:35:32;;;;;;;24.33;22.93;;;;;;;;;;5025005;28;20400;-82
2023/05/12 10:38:03;;;;;;;24.80;23.13;;;;;;;;;;5026176;28;20499;-85
2023/05/12 10:40:30;;;;;;;23.20;21.70;;;;;;;;;;5029806;28;20496;-85
2023/05/12 10:42:59;;;;;;;23.47;22.00;;;;;;;;;;5035076;28;20506;-83
2023/05/12 10:45:26;;;;;;;24.03;22.73;;;;;;;;;;5035884;28;20482;-84
2023/05/12 10:48:04;;;;;;;22.40;21.10;;;;;;;;;;5035871;28;20450;-84
2023/05/12 10:50:31;;;;;;;22.77;21.50;;;;;;;;;;5035720;28;20532;-83
2023/05/12 10:52:59;;;;;;;25.00;23.40;;;;;;;;;;5037043;28;20503;-84
2023/05/12 10:55:34;;;;;;;23.30;21.80;;;;;;;;;;5038766;28;20433;-83
2023/05/12 10:58:09;;;;;;;23.63;22.10;;;;;;;;;;5040468;28;20449;-83
2023/05/12 11:00:46;;;;;;;23.33;21.63;;;;;;;;;;5039674;28;20510;-83
2023/05/12 11:03:14;;;;;;;24.73;23.13;;;;;;;;;;5040311;28;20838;-83
2023/05/12 11:05:43;;;;;;;24.60;22.90;;;;;;;;;;5040180;28;20485;-83
2023/05/12 11:08:10;;;;;;;24.50;22.90;;;;;;;;;;5039684;28;20869;-83
2023/05/12 11:10:41;;;;;;;23.77;22.33;;;;;;;;;;5042086;28;20483;-83
2023/05/12 11:13:08;;;;;;;24.70;22.83;;;;;;;;;;5041182;28;20463;-83
2023/05/12 11:15:35;;;;;;;25.80;23.97;;;;;;;;;;5038845;28;20514;-82
2023/05/12 11:18:03;;;;;;;26.37;24.67;;;;;;;;;;5036837;28;20518;-82
2023/05/12 11:20:30;;;;;;;26.93;25.33;;;;;;;;;;5036141;28;20545;-82
2023/05/12 11:22:57;;;;;;;26.43;24.63;;;;;;;;;;5037225;28;20441;-83
2023/05/12 11:25:26;;;;;;;26.20;24.23;;;;;;;;;;5037730;28;20464;-83
2023/05/12 11:27:54;;;;;;;24.70;23.03;;;;;;;;;;5038471;28;20443;-84
2023/05/12 11:30:22;;;;;;;23.70;22.10;;;;;;;;;;5038457;28;20470;-83
2023/05/12 11:32:49;;;;;;;24.43;22.83;;;;;;;;;;5039071;28;20471;-84
2023/05/12 11:35:17;;;;;;;26.00;24.40;;;;;;;;;;5039821;28;20526;-83
2023/05/12 11:37:45;;;;;;;25.37;23.80;;;;;;;;;;5038719;28;20443;-84
2023/05/12 11:40:13;;;;;;;25.50;24.00;;;;;;;;;;5039505;28;20541;-83
2023/05/12 11:42:44;;;;;;;26.30;24.50;;;;;;;;;;5039582;28;20493;-84
2023/05/12 11:45:21;;;;;;;26.60;25.00;;;;;;;;;;5040149;28;20426;-84
2023/05/12 11:47:48;;;;;;;26.90;25.30;;;;;;;;;;5039279;28;20513;-84
2023/05/12 11:50:21;;;;;;;25.57;24.17;;;;;;;;;;5039662;28;20506;-83
2023/05/12 11:52:48;;;;;;;26.97;25.40;;;;;;;;;;5039454;28;20474;-84
2023/05/12 11:55:20;;;;;;;26.37;24.80;;;;;;;;;;5039730;28;20767;-84
2023/05/12 11:57:55;;;;;;;26.93;25.43;;;;;;;;;;5038326;28;20437;-83
2023/05/12 12:00:28;;;;;;;27.77;26.17;;;;;;;;;;5038766;28;20493;-84
2023/05/12 12:03:05;;;;;;;26.67;25.00;;;;;;;;;;5038367;28;20473;-84
2023/05/12 12:05:32;;;;;;;26.50;24.80;;;;;;;;;;5037752;28;20904;-84
2023/05/12 12:08:05;;;;;;;25.67;23.97;;;;;;;;;;5041229;28;20503;-84
2023/05/12 12:10:32;;;;;;;26.50;24.90;;;;;;;;;;5043684;28;20489;-84
2023/05/12 12:13:00;;;;;;;26.90;25.20;;;;;;;;;;5040738;28;20478;-80
2023/05/12 12:15:28;;;;;;;27.10;25.40;;;;;;;;;;5040736;28;20483;-84
2023/05/12 12:17:56;;;;;;;26.50;24.80;;;;;;;;;;5037697;28;20912;-84
2023/05/12 12:20:23;;;;;;;26.43;24.80;;;;;;;;;;5038977;28;20490;-83
2023/05/12 12:22:51;;;;;;;27.47;25.70;;;;;;;;;;5038010;28;20508;-83
2023/05/12 12:25:18;;;;;;;26.43;24.83;;;;;;;;;;5042779;28;20502;-84
2023/05/12 12:27:45;;;;;;;26.20;24.67;;;;;;;;;;5040947;28;20458;-84
2023/05/12 12:30:13;;;;;;;26.77;25.23;;;;;;;;;;5039848;28;20440;-83
2023/05/12 12:32:42;;;;;;;27.60;26.00;;;;;;;;;;5038121;28;20487;-84
2023/05/12 12:35:10;;;;;;;27.13;25.30;;;;;;;;;;5039846;28;20463;-83
2023/05/12 12:37:37;;;;;;;26.90;25.30;;;;;;;;;;5037860;28;20490;-83
2023/05/12 12:40:07;;;;;;;25.87;24.23;;;;;;;;;;5038911;28;21035;-84
2023/05/12 12:42:34;;;;;;;27.17;24.80;;;;;;;;;;5038117;28;20429;-84
2023/05/12 12:45:01;;;;;;;25.00;23.23;;;;;;;;;;5037776;28;20515;-84
2023/05/12 12:47:28;;;;;;;25.30;23.70;;;;;;;;;;5038108;28;20855;-82
2023/05/12 12:49:57;;;;;;;25.60;24.10;;;;;;;;;;5040259;28;20446;-78
2023/05/12 12:52:24;;;;;;;26.97;25.27;;;;;;;;;;5039710;28;20969;-80
2023/05/12 12:54:51;;;;;;;25.40;23.90;;;;;;;;;;5042440;28;20454;-80
2023/05/12 12:57:20;;;;;;;26.43;24.50;;;;;;;;;;5039246;28;20497;-81
2023/05/12 12:59:47;;;;;;;25.60;23.90;;;;;;;;;;5040538;28;20985;-80
2023/05/12 13:02:14;;;;;;;26.07;24.03;;;;;;;;;;5040157;28;20457;-81
2023/05/12 13:04:41;;;;;;;27.00;25.20;;;;;;;;;;5040095;28;20508;-80
2023/05/12 13:07:10;;;;;;;26.67;24.97;;;;;;;;;;5039525;28;20453;-80
2023/05/12 13:09:37;;;;;;;25.97;24.27;;;;;;;;;;5040234;28;20493;-80
2023/05/12 13:12:04;;;;;;;26.37;24.77;;;;;;;;;;5040177;28;20451;-81
2023/05/12 13:14:31;;;;;;;25.83;24.13;;;;;;;;;;5050826;28;20449;-80
2023/05/12 13:16:58;;;;;;;24.60;22.80;;;;;;;;;;5056350;28;20431;-80
2023/05/12 13:19:26;;;;;;;25.90;24.10;;;;;;;;;;5056213;28;20465;-80
2023/05/12 13:21:53;;;;;;;26.20;24.40;;;;;;;;;;5047584;28;20446;-81
2023/05/12 13:24:21;;;;;;;26.43;24.53;;;;;;;;;;5043547;28;20508;-80
2023/05/12 13:26:48;;;;;;;25.47;23.87;;;;;;;;;;5043158;28;20508;-80
2023/05/12 13:29:15;;;;;;;25.20;23.60;;;;;;;;;;5043527;28;20455;-80
2023/05/12 13:31:42;;;;;;;26.30;24.70;;;;;;;;;;5038738;28;20485;-79
2023/05/12 13:34:09;;;;;;;24.93;23.33;;;;;;;;;;5029185;28;20515;-78
2023/05/12 13:36:37;;;;;;;25.77;24.00;;;;;;;;;;5033371;28;20527;-87
2023/05/12 13:39:17;;;;;;;25.90;24.10;;;;;;;;;;5036124;28;20528;-90
2023/05/12 13:41:45;;;;;;;24.30;22.70;;;;;;;;;;5035872;28;21419;-85
2023/05/12 13:44:12;;;;;;;25.83;23.90;;;;;;;;;;5036061;28;20927;-87
2023/05/12 13:46:39;;;;;;;24.80;23.20;;;;;;;;;;5034331;28;20466;-84
2023/05/12 13:49:06;;;;;;;25.30;23.60;;;;;;;;;;5035524;28;20525;-89
2023/05/12 13:51:33;;;;;;;26.57;24.57;;;;;;;;;;5034402;28;20406;-88
2023/05/12 13:54:00;;;;;;;25.97;24.17;;;;;;;;;;5037618;28;20459;-88
2023/05/12 13:56:27;;;;;;;25.63;23.80;;;;;;;;;;5036763;28;20468;-87
2023/05/12 13:58:57;;;;;;;25.60;23.90;;;;;;;;;;5034226;28;20493;-87
2023/05/12 14:01:24;;;;;;;25.43;23.63;;;;;;;;;;5035601;28;20841;-86
2023/05/12 14:03:51;;;;;;;25.40;23.90;;;;;;;;;;5042584;28;20426;-85
2023/05/12 14:06:18;;;;;;;26.23;24.53;;;;;;;;;;5042142;28;20472;-80
2023/05/12 14:08:45;;;;;;;25.47;23.77;;;;;;;;;;5038222;28;20927;-80
2023/05/12 14:11:12;;;;;;;25.87;23.93;;;;;;;;;;5035663;28;20479;-80
2023/05/12 14:13:39;;;;;;;26.47;24.77;;;;;;;;;;5035837;28;20462;-80
2023/05/12 14:16:08;;;;;;;25.50;23.70;;;;;;;;;;5035327;28;20410;-80
2023/05/12 14:18:36;;;;;;;24.63;23.10;;;;;;;;;;5036101;28;20510;-80
2023/05/12 14:21:04;;;;;;;25.00;23.50;;;;;;;;;;5035469;28;20491;-80
2023/05/12 14:23:31;;;;;;;25.73;24.10;;;;;;;;;;5036556;28;20505;-80